sensor_id;sensor_type;location;lat;lon;timestamp;pressure;altitude;pressure_sealevel;temperature;humidity
53754;BME280;39667;52.274;20.964;2022-08-25T00:02:06;100739.08;;;21.90;72.37
53754;BME280;39667;52.274;20.964;2022-08-25T00:04:34;100734.27;;;21.83;72.61
53754;BME280;39667;52.274;20.964;2022-08-25T00:07:03;100734.02;;;21.77;72.95
53754;BME280;39667;52.274;20.964;2022-08-25T00:09:31;100729.09;;;21.82;72.99
53754;BME280;39667;52.274;20.964;2022-08-25T00:11:58;100730.60;;;21.92;73.00
53754;BME280;39667;52.274;20.964;2022-08-25T00:14:33;100724.62;;;22.00;73.11
53754;BME280;39667;52.274;20.964;2022-08-25T00:17:03;100717.85;;;22.06;72.81
53754;BME280;39667;52.274;20.964;2022-08-25T00:19:32;100716.29;;;22.09;72.88
53754;BME280;39667;52.274;20.964;2022-08-25T00:21:59;100711.76;;;22.09;72.91
53754;BME280;39667;52.274;20.964;2022-08-25T00:24:27;100709.89;;;22.14;72.92
53754;BME280;39667;52.274;20.964;2022-08-25T00:26:55;100709.81;;;22.19;72.77
53754;BME280;39667;52.274;20.964;2022-08-25T00:29:23;100709.61;;;22.26;72.68
53754;BME280;39667;52.274;20.964;2022-08-25T00:31:54;100710.11;;;22.30;72.61
53754;BME280;39667;52.274;20.964;2022-08-25T00:34:24;100706.97;;;22.29;72.52
53754;BME280;39667;52.274;20.964;2022-08-25T00:36:52;100709.41;;;22.30;72.54
53754;BME280;39667;52.274;20.964;2022-08-25T00:39:21;100707.03;;;22.28;72.47
53754;BME280;39667;52.274;20.964;2022-08-25T00:41:49;100704.17;;;22.31;72.54
53754;BME280;39667;52.274;20.964;2022-08-25T00:44:18;100702.71;;;22.35;72.71
53754;BME280;39667;52.274;20.964;2022-08-25T00:46:50;100700.36;;;22.38;72.41
53754;BME280;39667;52.274;20.964;2022-08-25T00:49:25;100701.70;;;22.40;72.51
53754;BME280;39667;52.274;20.964;2022-08-25T00:52:15;100700.73;;;22.42;72.33
53754;BME280;39667;52.274;20.964;2022-08-25T00:54:53;100703.73;;;22.42;72.65
53754;BME280;39667;52.274;20.964;2022-08-25T00:57:30;100702.82;;;22.43;72.39
53754;BME280;39667;52.274;20.964;2022-08-25T01:00:07;100698.39;;;22.42;72.81
53754;BME280;39667;52.274;20.964;2022-08-25T01:02:38;100696.84;;;22.44;72.78
53754;BME280;39667;52.274;20.964;2022-08-25T01:05:05;100689.30;;;22.44;72.68
53754;BME280;39667;52.274;20.964;2022-08-25T01:07:31;100689.02;;;22.43;72.73
53754;BME280;39667;52.274;20.964;2022-08-25T01:09:58;100692.23;;;22.43;72.83
53754;BME280;39667;52.274;20.964;2022-08-25T01:12:25;100690.71;;;22.41;72.91
53754;BME280;39667;52.274;20.964;2022-08-25T01:14:52;100696.19;;;22.43;72.96
53754;BME280;39667;52.274;20.964;2022-08-25T01:17:20;100695.38;;;22.45;72.96
53754;BME280;39667;52.274;20.964;2022-08-25T01:19:47;100691.10;;;22.44;72.96
53754;BME280;39667;52.274;20.964;2022-08-25T01:22:13;100691.88;;;22.43;72.95
53754;BME280;39667;52.274;20.964;2022-08-25T01:24:46;100691.63;;;22.44;72.97
53754;BME280;39667;52.274;20.964;2022-08-25T01:27:15;100694.13;;;22.45;73.14
53754;BME280;39667;52.274;20.964;2022-08-25T01:29:41;100693.71;;;22.42;73.26
53754;BME280;39667;52.274;20.964;2022-08-25T01:32:09;100688.14;;;22.42;73.37
53754;BME280;39667;52.274;20.964;2022-08-25T01:34:39;100691.09;;;22.44;73.44
53754;BME280;39667;52.274;20.964;2022-08-25T01:37:08;100688.39;;;22.44;73.47
53754;BME280;39667;52.274;20.964;2022-08-25T01:39:38;100690.27;;;22.43;73.55
53754;BME280;39667;52.274;20.964;2022-08-25T01:44:34;100687.88;;;22.47;73.53
53754;BME280;39667;52.274;20.964;2022-08-25T01:47:02;100689.65;;;22.47;73.47
53754;BME280;39667;52.274;20.964;2022-08-25T01:49:29;100691.55;;;22.49;73.54
53754;BME280;39667;52.274;20.964;2022-08-25T01:52:00;100693.78;;;22.50;73.44
53754;BME280;39667;52.274;20.964;2022-08-25T01:54:27;100691.31;;;22.53;73.74
53754;BME280;39667;52.274;20.964;2022-08-25T01:56:53;100690.63;;;22.53;73.70
53754;BME280;39667;52.274;20.964;2022-08-25T01:59:20;100690.23;;;22.53;73.73
53754;BME280;39667;52.274;20.964;2022-08-25T02:01:50;100690.89;;;22.55;73.66
53754;BME280;39667;52.274;20.964;2022-08-25T02:04:25;100688.59;;;22.57;73.74
53754;BME280;39667;52.274;20.964;2022-08-25T02:06:51;100688.41;;;22.57;73.87
53754;BME280;39667;52.274;20.964;2022-08-25T02:09:17;100686.50;;;22.56;73.84
53754;BME280;39667;52.274;20.964;2022-08-25T02:11:46;100687.03;;;22.56;73.93
53754;BME280;39667;52.274;20.964;2022-08-25T02:14:14;100682.64;;;22.58;74.05
53754;BME280;39667;52.274;20.964;2022-08-25T02:16:43;100681.30;;;22.60;74.14
53754;BME280;39667;52.274;20.964;2022-08-25T02:19:10;100674.63;;;22.60;74.20
53754;BME280;39667;52.274;20.964;2022-08-25T02:21:38;100673.23;;;22.59;74.15
53754;BME280;39667;52.274;20.964;2022-08-25T02:24:05;100671.98;;;22.60;74.47
53754;BME280;39667;52.274;20.964;2022-08-25T02:26:32;100669.64;;;22.59;74.25
53754;BME280;39667;52.274;20.964;2022-08-25T02:28:59;100672.89;;;22.59;74.43
53754;BME280;39667;52.274;20.964;2022-08-25T02:31:26;100670.45;;;22.61;74.61
53754;BME280;39667;52.274;20.964;2022-08-25T02:33:53;100670.50;;;22.60;74.32
53754;BME280;39667;52.274;20.964;2022-08-25T02:36:20;100670.43;;;22.58;74.71
53754;BME280;39667;52.274;20.964;2022-08-25T02:38:46;100669.85;;;22.59;74.59
53754;BME280;39667;52.274;20.964;2022-08-25T02:41:16;100670.19;;;22.59;74.59
53754;BME280;39667;52.274;20.964;2022-08-25T02:43:43;100668.52;;;22.60;74.70
53754;BME280;39667;52.274;20.964;2022-08-25T02:46:11;100666.66;;;22.62;74.59
53754;BME280;39667;52.274;20.964;2022-08-25T02:48:38;100669.34;;;22.62;74.50
53754;BME280;39667;52.274;20.964;2022-08-25T02:51:06;100666.88;;;22.61;74.57
53754;BME280;39667;52.274;20.964;2022-08-25T02:53:34;100666.27;;;22.62;74.67
53754;BME280;39667;52.274;20.964;2022-08-25T02:56:01;100666.64;;;22.66;74.62
53754;BME280;39667;52.274;20.964;2022-08-25T02:58:27;100667.02;;;22.66;74.54
53754;BME280;39667;52.274;20.964;2022-08-25T03:00:53;100672.16;;;22.66;74.64
53754;BME280;39667;52.274;20.964;2022-08-25T03:03:21;100664.84;;;22.62;74.68
53754;BME280;39667;52.274;20.964;2022-08-25T03:05:47;100670.79;;;22.65;74.58
53754;BME280;39667;52.274;20.964;2022-08-25T03:08:14;100671.70;;;22.65;74.42
53754;BME280;39667;52.274;20.964;2022-08-25T03:10:40;100671.55;;;22.64;74.47
53754;BME280;39667;52.274;20.964;2022-08-25T03:13:07;100673.42;;;22.63;74.75
53754;BME280;39667;52.274;20.964;2022-08-25T03:15:33;100677.64;;;22.64;74.70
53754;BME280;39667;52.274;20.964;2022-08-25T03:18:04;100682.02;;;22.67;74.71
53754;BME280;39667;52.274;20.964;2022-08-25T03:20:34;100677.22;;;22.66;74.84
53754;BME280;39667;52.274;20.964;2022-08-25T03:23:02;100673.89;;;22.64;74.79
53754;BME280;39667;52.274;20.964;2022-08-25T03:25:28;100669.84;;;22.63;74.69
53754;BME280;39667;52.274;20.964;2022-08-25T03:28:13;100671.77;;;22.67;74.85
53754;BME280;39667;52.274;20.964;2022-08-25T03:30:41;100669.39;;;22.68;74.59
53754;BME280;39667;52.274;20.964;2022-08-25T03:33:07;100669.08;;;22.70;74.56
53754;BME280;39667;52.274;20.964;2022-08-25T03:35:33;100668.77;;;22.69;74.37
53754;BME280;39667;52.274;20.964;2022-08-25T03:38:00;100667.55;;;22.65;74.53
53754;BME280;39667;52.274;20.964;2022-08-25T03:40:27;100671.99;;;22.66;74.69
53754;BME280;39667;52.274;20.964;2022-08-25T03:42:54;100671.55;;;22.68;74.60
53754;BME280;39667;52.274;20.964;2022-08-25T03:45:22;100672.60;;;22.68;74.44
53754;BME280;39667;52.274;20.964;2022-08-25T03:47:50;100671.88;;;22.71;74.68
53754;BME280;39667;52.274;20.964;2022-08-25T03:50:19;100672.84;;;22.73;74.57
53754;BME280;39667;52.274;20.964;2022-08-25T03:52:53;100668.93;;;22.72;74.41
53754;BME280;39667;52.274;20.964;2022-08-25T03:55:21;100672.27;;;22.74;74.44
53754;BME280;39667;52.274;20.964;2022-08-25T03:57:49;100668.27;;;22.72;74.45
53754;BME280;39667;52.274;20.964;2022-08-25T04:00:16;100672.55;;;22.72;74.37
53754;BME280;39667;52.274;20.964;2022-08-25T04:02:42;100669.58;;;22.71;74.14
53754;BME280;39667;52.274;20.964;2022-08-25T04:05:08;100667.89;;;22.69;74.25
53754;BME280;39667;52.274;20.964;2022-08-25T04:07:35;100667.95;;;22.67;74.19
53754;BME280;39667;52.274;20.964;2022-08-25T04:10:01;100669.09;;;22.67;74.19
53754;BME280;39667;52.274;20.964;2022-08-25T04:12:27;100668.71;;;22.67;74.38
53754;BME280;39667;52.274;20.964;2022-08-25T04:14:54;100666.84;;;22.68;74.22
53754;BME280;39667;52.274;20.964;2022-08-25T04:17:20;100668.94;;;22.66;74.34
53754;BME280;39667;52.274;20.964;2022-08-25T04:19:47;100666.95;;;22.66;74.24
53754;BME280;39667;52.274;20.964;2022-08-25T04:22:13;100666.26;;;22.66;74.28
53754;BME280;39667;52.274;20.964;2022-08-25T04:24:39;100664.98;;;22.63;74.26
53754;BME280;39667;52.274;20.964;2022-08-25T04:27:06;100660.08;;;22.60;74.37
53754;BME280;39667;52.274;20.964;2022-08-25T04:29:32;100660.64;;;22.64;74.21
53754;BME280;39667;52.274;20.964;2022-08-25T04:31:58;100658.58;;;22.65;74.23
53754;BME280;39667;52.274;20.964;2022-08-25T04:34:26;100662.29;;;22.67;74.42
53754;BME280;39667;52.274;20.964;2022-08-25T04:37:01;100660.17;;;22.69;74.37
53754;BME280;39667;52.274;20.964;2022-08-25T04:39:29;100660.17;;;22.69;74.25
53754;BME280;39667;52.274;20.964;2022-08-25T04:41:55;100657.64;;;22.72;74.14
53754;BME280;39667;52.274;20.964;2022-08-25T04:44:22;100661.42;;;22.75;74.05
53754;BME280;39667;52.274;20.964;2022-08-25T04:46:48;100662.70;;;22.78;74.26
53754;BME280;39667;52.274;20.964;2022-08-25T04:49:14;100661.02;;;22.80;74.08
53754;BME280;39667;52.274;20.964;2022-08-25T04:55:25;100656.23;;;22.88;73.90
53754;BME280;39667;52.274;20.964;2022-08-25T04:57:52;100657.27;;;22.89;73.74
53754;BME280;39667;52.274;20.964;2022-08-25T05:00:18;100652.96;;;22.92;73.81
53754;BME280;39667;52.274;20.964;2022-08-25T05:02:44;100653.00;;;22.94;73.67
53754;BME280;39667;52.274;20.964;2022-08-25T05:05:10;100647.79;;;22.94;73.47
53754;BME280;39667;52.274;20.964;2022-08-25T05:07:36;100649.67;;;22.96;73.71
53754;BME280;39667;52.274;20.964;2022-08-25T05:10:02;100651.85;;;22.99;73.48
53754;BME280;39667;52.274;20.964;2022-08-25T05:12:29;100651.52;;;23.01;73.34
53754;BME280;39667;52.274;20.964;2022-08-25T05:14:58;100649.91;;;23.05;73.32
53754;BME280;39667;52.274;20.964;2022-08-25T05:17:44;100651.57;;;23.10;73.18
53754;BME280;39667;52.274;20.964;2022-08-25T05:20:10;100654.30;;;23.13;73.22
53754;BME280;39667;52.274;20.964;2022-08-25T05:22:36;100654.16;;;23.15;73.31
53754;BME280;39667;52.274;20.964;2022-08-25T05:25:03;100653.75;;;23.19;73.12
53754;BME280;39667;52.274;20.964;2022-08-25T05:27:29;100653.50;;;23.23;73.12
53754;BME280;39667;52.274;20.964;2022-08-25T05:29:55;100649.18;;;23.24;72.80
53754;BME280;39667;52.274;20.964;2022-08-25T05:32:22;100651.36;;;23.30;73.01
53754;BME280;39667;52.274;20.964;2022-08-25T05:34:48;100646.16;;;23.32;72.57
53754;BME280;39667;52.274;20.964;2022-08-25T05:37:14;100645.77;;;23.33;72.42
53754;BME280;39667;52.274;20.964;2022-08-25T05:39:40;100645.60;;;23.35;72.55
53754;BME280;39667;52.274;20.964;2022-08-25T05:42:06;100643.00;;;23.37;72.59
53754;BME280;39667;52.274;20.964;2022-08-25T05:44:32;100644.16;;;23.39;72.47
53754;BME280;39667;52.274;20.964;2022-08-25T05:46:58;100647.18;;;23.43;72.36
53754;BME280;39667;52.274;20.964;2022-08-25T05:49:25;100647.31;;;23.47;72.02
53754;BME280;39667;52.274;20.964;2022-08-25T05:51:51;100648.23;;;23.49;72.09
53754;BME280;39667;52.274;20.964;2022-08-25T05:54:17;100651.28;;;23.53;72.10
53754;BME280;39667;52.274;20.964;2022-08-25T05:56:43;100651.77;;;23.54;72.24
53754;BME280;39667;52.274;20.964;2022-08-25T05:59:10;100652.30;;;23.57;71.92
53754;BME280;39667;52.274;20.964;2022-08-25T06:01:36;100654.30;;;23.57;71.86
53754;BME280;39667;52.274;20.964;2022-08-25T06:04:21;100654.08;;;23.60;71.88
53754;BME280;39667;52.274;20.964;2022-08-25T06:06:48;100652.05;;;23.61;71.49
53754;BME280;39667;52.274;20.964;2022-08-25T06:09:18;100648.44;;;23.61;71.31
53754;BME280;39667;52.274;20.964;2022-08-25T06:11:44;100653.13;;;23.61;70.93
53754;BME280;39667;52.274;20.964;2022-08-25T06:14:12;100650.00;;;23.62;71.26
53754;BME280;39667;52.274;20.964;2022-08-25T06:16:38;100652.88;;;23.62;70.90
53754;BME280;39667;52.274;20.964;2022-08-25T06:19:08;100653.90;;;23.66;71.18
53754;BME280;39667;52.274;20.964;2022-08-25T06:21:35;100655.23;;;23.71;71.12
53754;BME280;39667;52.274;20.964;2022-08-25T06:24:04;100652.58;;;23.76;70.78
53754;BME280;39667;52.274;20.964;2022-08-25T06:26:30;100652.48;;;23.81;70.33
53754;BME280;39667;52.274;20.964;2022-08-25T06:28:56;100653.52;;;23.85;70.28
53754;BME280;39667;52.274;20.964;2022-08-25T06:31:22;100655.48;;;23.88;70.33
53754;BME280;39667;52.274;20.964;2022-08-25T06:33:50;100657.37;;;23.90;70.14
53754;BME280;39667;52.274;20.964;2022-08-25T06:36:18;100659.75;;;23.95;70.10
53754;BME280;39667;52.274;20.964;2022-08-25T06:38:46;100658.13;;;24.04;70.19
53754;BME280;39667;52.274;20.964;2022-08-25T06:41:12;100653.39;;;24.10;69.91
53754;BME280;39667;52.274;20.964;2022-08-25T06:43:40;100653.60;;;24.16;69.58
53754;BME280;39667;52.274;20.964;2022-08-25T06:46:16;100654.56;;;24.24;69.70
53754;BME280;39667;52.274;20.964;2022-08-25T06:48:43;100653.95;;;24.31;69.55
53754;BME280;39667;52.274;20.964;2022-08-25T06:51:14;100651.41;;;24.37;69.20
53754;BME280;39667;52.274;20.964;2022-08-25T06:53:41;100656.04;;;24.44;68.73
53754;BME280;39667;52.274;20.964;2022-08-25T06:56:08;100655.02;;;24.52;68.63
53754;BME280;39667;52.274;20.964;2022-08-25T06:58:34;100659.03;;;24.59;68.25
53754;BME280;39667;52.274;20.964;2022-08-25T07:01:13;100662.19;;;24.66;67.94
53754;BME280;39667;52.274;20.964;2022-08-25T07:03:46;100662.80;;;24.73;67.92
53754;BME280;39667;52.274;20.964;2022-08-25T07:06:13;100667.27;;;24.80;67.87
53754;BME280;39667;52.274;20.964;2022-08-25T07:08:45;100668.00;;;24.85;67.67
53754;BME280;39667;52.274;20.964;2022-08-25T07:11:12;100673.27;;;24.91;67.34
53754;BME280;39667;52.274;20.964;2022-08-25T07:13:44;100675.15;;;24.98;67.23
53754;BME280;39667;52.274;20.964;2022-08-25T07:16:10;100671.30;;;25.04;67.03
53754;BME280;39667;52.274;20.964;2022-08-25T07:18:37;100673.80;;;25.10;66.77
53754;BME280;39667;52.274;20.964;2022-08-25T07:21:03;100674.10;;;25.17;66.65
53754;BME280;39667;52.274;20.964;2022-08-25T07:23:29;100672.75;;;25.27;66.36
53754;BME280;39667;52.274;20.964;2022-08-25T07:25:55;100677.98;;;25.32;65.48
53754;BME280;39667;52.274;20.964;2022-08-25T07:28:22;100683.02;;;25.29;65.36
53754;BME280;39667;52.274;20.964;2022-08-25T07:30:50;100683.05;;;25.37;65.43
53754;BME280;39667;52.274;20.964;2022-08-25T07:33:17;100682.88;;;25.50;65.55
53754;BME280;39667;52.274;20.964;2022-08-25T07:35:44;100676.17;;;25.62;65.18
53754;BME280;39667;52.274;20.964;2022-08-25T07:38:10;100679.36;;;25.76;64.72
53754;BME280;39667;52.274;20.964;2022-08-25T07:40:38;100683.28;;;25.88;64.49
53754;BME280;39667;52.274;20.964;2022-08-25T07:43:08;100678.69;;;26.02;64.39
53754;BME280;39667;52.274;20.964;2022-08-25T07:45:37;100678.52;;;26.15;63.93
53754;BME280;39667;52.274;20.964;2022-08-25T07:48:16;100676.06;;;26.24;63.46
53754;BME280;39667;52.274;20.964;2022-08-25T07:50:45;100677.68;;;26.37;63.34
53754;BME280;39667;52.274;20.964;2022-08-25T07:53:14;100675.42;;;26.49;63.12
53754;BME280;39667;52.274;20.964;2022-08-25T07:55:40;100673.15;;;26.58;62.37
53754;BME280;39667;52.274;20.964;2022-08-25T07:58:10;100677.56;;;26.70;62.32
53754;BME280;39667;52.274;20.964;2022-08-25T08:00:38;100679.94;;;26.84;62.14
53754;BME280;39667;52.274;20.964;2022-08-25T08:03:08;100684.50;;;26.96;61.81
53754;BME280;39667;52.274;20.964;2022-08-25T08:05:49;100687.41;;;27.08;61.34
53754;BME280;39667;52.274;20.964;2022-08-25T08:08:15;100685.07;;;27.18;60.94
53754;BME280;39667;52.274;20.964;2022-08-25T08:10:44;100682.02;;;27.25;60.47
53754;BME280;39667;52.274;20.964;2022-08-25T08:13:31;100686.92;;;27.34;60.19
53754;BME280;39667;52.274;20.964;2022-08-25T08:16:00;100685.77;;;27.43;60.10
53754;BME280;39667;52.274;20.964;2022-08-25T08:18:26;100682.37;;;27.50;59.52
53754;BME280;39667;52.274;20.964;2022-08-25T08:20:52;100684.73;;;27.56;59.60
53754;BME280;39667;52.274;20.964;2022-08-25T08:23:19;100680.14;;;27.65;59.40
53754;BME280;39667;52.274;20.964;2022-08-25T08:25:52;100682.23;;;27.71;58.58
53754;BME280;39667;52.274;20.964;2022-08-25T08:28:18;100682.20;;;27.78;58.37
53754;BME280;39667;52.274;20.964;2022-08-25T08:30:45;100685.36;;;27.84;58.05
53754;BME280;39667;52.274;20.964;2022-08-25T08:33:20;100680.80;;;27.89;57.60
53754;BME280;39667;52.274;20.964;2022-08-25T08:35:46;100679.48;;;27.97;57.35
53754;BME280;39667;52.274;20.964;2022-08-25T08:38:12;100681.26;;;28.07;57.25
53754;BME280;39667;52.274;20.964;2022-08-25T08:40:59;100678.91;;;28.16;56.59
53754;BME280;39667;52.274;20.964;2022-08-25T08:43:53;100676.00;;;28.23;55.88
53754;BME280;39667;52.274;20.964;2022-08-25T08:46:21;100676.15;;;28.31;55.23
53754;BME280;39667;52.274;20.964;2022-08-25T08:51:26;100674.89;;;28.51;55.02
53754;BME280;39667;52.274;20.964;2022-08-25T08:54:12;100672.34;;;28.61;54.57
53754;BME280;39667;52.274;20.964;2022-08-25T08:56:44;100669.46;;;28.63;53.79
53754;BME280;39667;52.274;20.964;2022-08-25T08:59:23;100677.05;;;28.70;54.13
53754;BME280;39667;52.274;20.964;2022-08-25T09:02:32;100674.56;;;28.78;53.50
53754;BME280;39667;52.274;20.964;2022-08-25T09:05:17;100668.68;;;28.90;53.04
53754;BME280;39667;52.274;20.964;2022-08-25T09:07:56;100669.58;;;29.02;52.19
53754;BME280;39667;52.274;20.964;2022-08-25T09:10:27;100666.23;;;29.16;52.09
53754;BME280;39667;52.274;20.964;2022-08-25T09:16:28;100665.30;;;29.45;51.15
53754;BME280;39667;52.274;20.964;2022-08-25T09:28:12;100659.71;;;29.85;49.63
53754;BME280;39667;52.274;20.964;2022-08-25T09:33:33;100661.79;;;30.14;48.59
53754;BME280;39667;52.274;20.964;2022-08-25T09:36:02;100662.84;;;30.27;48.04
53754;BME280;39667;52.274;20.964;2022-08-25T09:38:31;100662.08;;;30.44;47.43
53754;BME280;39667;52.274;20.964;2022-08-25T09:41:00;100657.23;;;30.59;47.83
53754;BME280;39667;52.274;20.964;2022-08-25T09:46:13;100652.65;;;30.85;46.32
53754;BME280;39667;52.274;20.964;2022-08-25T09:51:31;100648.10;;;31.19;45.51
53754;BME280;39667;52.274;20.964;2022-08-25T09:59:20;100639.45;;;31.65;43.21
53754;BME280;39667;52.274;20.964;2022-08-25T10:02:04;100636.98;;;31.83;42.69
53754;BME280;39667;52.274;20.964;2022-08-25T10:04:34;100629.70;;;32.01;42.49
53754;BME280;39667;52.274;20.964;2022-08-25T10:07:32;100623.50;;;32.16;41.24
53754;BME280;39667;52.274;20.964;2022-08-25T10:10:15;100620.45;;;32.20;40.57
53754;BME280;39667;52.274;20.964;2022-08-25T10:12:44;100624.30;;;32.29;40.64
53754;BME280;39667;52.274;20.964;2022-08-25T10:18:21;100613.90;;;32.63;40.76
53754;BME280;39667;52.274;20.964;2022-08-25T10:21:00;100616.83;;;32.85;40.92
53754;BME280;39667;52.274;20.964;2022-08-25T10:23:27;100610.95;;;33.05;41.22
53754;BME280;39667;52.274;20.964;2022-08-25T10:25:59;100609.34;;;33.20;41.00
53754;BME280;39667;52.274;20.964;2022-08-25T10:31:20;100599.50;;;33.45;40.03
53754;BME280;39667;52.274;20.964;2022-08-25T10:39:16;100587.80;;;33.86;38.85
53754;BME280;39667;52.274;20.964;2022-08-25T10:42:20;100589.11;;;34.06;37.85
53754;BME280;39667;52.274;20.964;2022-08-25T10:45:21;100585.38;;;34.19;35.76
53754;BME280;39667;52.274;20.964;2022-08-25T10:54:12;100574.23;;;34.67;30.96
53754;BME280;39667;52.274;20.964;2022-08-25T10:56:49;100577.86;;;34.71;29.81
53754;BME280;39667;52.274;20.964;2022-08-25T11:05:31;100573.52;;;34.88;28.66
53754;BME280;39667;52.274;20.964;2022-08-25T11:10:47;100560.30;;;35.12;27.85
53754;BME280;39667;52.274;20.964;2022-08-25T11:13:22;100558.45;;;35.22;27.37
53754;BME280;39667;52.274;20.964;2022-08-25T11:15:54;100553.53;;;35.35;27.27
53754;BME280;39667;52.274;20.964;2022-08-25T11:19:01;100552.73;;;35.47;27.22
53754;BME280;39667;52.274;20.964;2022-08-25T11:21:55;100552.73;;;35.57;26.81
53754;BME280;39667;52.274;20.964;2022-08-25T11:27:12;100546.05;;;35.82;26.52
53754;BME280;39667;52.274;20.964;2022-08-25T11:29:52;100539.41;;;35.89;26.04
53754;BME280;39667;52.274;20.964;2022-08-25T11:32:22;100546.98;;;35.98;26.00
53754;BME280;39667;52.274;20.964;2022-08-25T11:34:49;100542.14;;;36.07;25.94
53754;BME280;39667;52.274;20.964;2022-08-25T11:37:25;100539.11;;;36.10;25.79
53754;BME280;39667;52.274;20.964;2022-08-25T11:51:41;100535.02;;;36.10;24.74
53754;BME280;39667;52.274;20.964;2022-08-25T11:54:37;100533.00;;;36.24;24.72
53754;BME280;39667;52.274;20.964;2022-08-25T12:02:45;100536.34;;;36.82;24.36
53754;BME280;39667;52.274;20.964;2022-08-25T12:11:03;100540.00;;;36.96;22.95
53754;BME280;39667;52.274;20.964;2022-08-25T12:13:47;100543.70;;;36.99;22.65
53754;BME280;39667;52.274;20.964;2022-08-25T12:19:26;100541.60;;;37.06;22.74
53754;BME280;39667;52.274;20.964;2022-08-25T12:33:09;100533.64;;;37.57;21.85
53754;BME280;39667;52.274;20.964;2022-08-25T12:35:58;100528.73;;;37.49;21.78
53754;BME280;39667;52.274;20.964;2022-08-25T12:38:45;100532.08;;;37.36;21.42
53754;BME280;39667;52.274;20.964;2022-08-25T12:41:25;100525.48;;;37.32;21.75
53754;BME280;39667;52.274;20.964;2022-08-25T12:49:49;100520.42;;;37.77;21.09
53754;BME280;39667;52.274;20.964;2022-08-25T12:52:18;100516.00;;;37.80;20.81
53754;BME280;39667;52.274;20.964;2022-08-25T12:54:58;100519.39;;;37.88;20.81
53754;BME280;39667;52.274;20.964;2022-08-25T13:03:20;100515.60;;;38.19;20.46
53754;BME280;39667;52.274;20.964;2022-08-25T13:06:13;100512.45;;;38.41;20.64
53754;BME280;39667;52.274;20.964;2022-08-25T13:12:08;100506.42;;;38.45;20.36
53754;BME280;39667;52.274;20.964;2022-08-25T13:14:41;100505.02;;;38.55;20.27
53754;BME280;39667;52.274;20.964;2022-08-25T13:17:09;100507.02;;;38.54;20.28
53754;BME280;39667;52.274;20.964;2022-08-25T13:19:36;100508.56;;;38.47;19.99
53754;BME280;39667;52.274;20.964;2022-08-25T13:22:13;100502.08;;;38.48;20.43
53754;BME280;39667;52.274;20.964;2022-08-25T13:24:44;100502.80;;;38.58;20.41
53754;BME280;39667;52.274;20.964;2022-08-25T13:27:23;100509.34;;;38.68;20.56
53754;BME280;39667;52.274;20.964;2022-08-25T13:29:55;100513.36;;;38.66;20.35
53754;BME280;39667;52.274;20.964;2022-08-25T13:32:32;100511.13;;;38.68;19.76
53754;BME280;39667;52.274;20.964;2022-08-25T13:35:16;100508.66;;;38.69;19.61
53754;BME280;39667;52.274;20.964;2022-08-25T13:37:45;100509.32;;;38.60;19.53
53754;BME280;39667;52.274;20.964;2022-08-25T13:40:23;100505.10;;;38.48;19.62
53754;BME280;39667;52.274;20.964;2022-08-25T13:42:58;100502.65;;;38.49;19.78
53754;BME280;39667;52.274;20.964;2022-08-25T13:45:29;100500.52;;;38.63;19.58
53754;BME280;39667;52.274;20.964;2022-08-25T13:47:57;100506.61;;;38.64;19.31
53754;BME280;39667;52.274;20.964;2022-08-25T13:58:23;100496.75;;;38.49;19.37
53754;BME280;39667;52.274;20.964;2022-08-25T14:01:13;100496.83;;;38.57;19.27
53754;BME280;39667;52.274;20.964;2022-08-25T14:04:30;100501.75;;;38.58;19.17
53754;BME280;39667;52.274;20.964;2022-08-25T14:09:53;100493.02;;;38.59;19.26
53754;BME280;39667;52.274;20.964;2022-08-25T14:12:40;100487.82;;;38.79;19.30
53754;BME280;39667;52.274;20.964;2022-08-25T14:15:11;100483.57;;;39.05;18.87
53754;BME280;39667;52.274;20.964;2022-08-25T14:17:41;100478.55;;;39.14;18.65
53754;BME280;39667;52.274;20.964;2022-08-25T14:20:23;100482.83;;;39.24;18.75
53754;BME280;39667;52.274;20.964;2022-08-25T14:22:56;100482.88;;;39.25;18.99
53754;BME280;39667;52.274;20.964;2022-08-25T14:25:26;100483.27;;;39.16;18.70
53754;BME280;39667;52.274;20.964;2022-08-25T14:27:58;100479.84;;;39.11;18.73
53754;BME280;39667;52.274;20.964;2022-08-25T14:30:35;100477.69;;;39.04;18.62
53754;BME280;39667;52.274;20.964;2022-08-25T14:33:05;100478.11;;;38.97;18.73
53754;BME280;39667;52.274;20.964;2022-08-25T14:35:33;100475.69;;;38.96;18.85
53754;BME280;39667;52.274;20.964;2022-08-25T14:38:05;100474.15;;;39.03;18.86
53754;BME280;39667;52.274;20.964;2022-08-25T14:40:33;100470.64;;;39.04;18.85
53754;BME280;39667;52.274;20.964;2022-08-25T14:43:00;100474.93;;;39.05;18.93
53754;BME280;39667;52.274;20.964;2022-08-25T14:45:27;100474.80;;;38.96;18.88
53754;BME280;39667;52.274;20.964;2022-08-25T14:48:01;100474.52;;;38.88;18.99
53754;BME280;39667;52.274;20.964;2022-08-25T14:50:28;100471.55;;;38.77;18.77
53754;BME280;39667;52.274;20.964;2022-08-25T14:52:55;100467.55;;;38.63;18.99
53754;BME280;39667;52.274;20.964;2022-08-25T14:55:25;100466.21;;;38.52;19.14
53754;BME280;39667;52.274;20.964;2022-08-25T14:57:57;100467.51;;;38.36;19.25
53754;BME280;39667;52.274;20.964;2022-08-25T15:00:24;100465.03;;;38.26;19.55
53754;BME280;39667;52.274;20.964;2022-08-25T15:02:51;100466.23;;;38.20;19.65
53754;BME280;39667;52.274;20.964;2022-08-25T15:05:25;100463.99;;;38.16;19.71
53754;BME280;39667;52.274;20.964;2022-08-25T15:07:54;100469.48;;;38.08;19.78